Kaw City, OK (74641)

9:04 AM CDT on July 29, 2016 (GMT -0500)
Oak Drive, Kaw City, Oklahoma, USA | | Change Station

Elev 1127 ft 36.76 °N, 96.87 °W | Updated 4 minutes ago

Overcast
Overcast
71.2 °F
Feels Like 73 °F
N
1.6
Wind Variable Wind from West
Gusts 7.6 mph

Today
High -- | Low -- °F
--% Chance of Precip.
Yesterday
High -- | Low -- °F
Precip. -- in
Pressure 30.01 in
Visibility 7.0 miles
Clouds Scattered Clouds 11000 ft
Heat Index 73 °F
Dew Point 63 °F
Humidity 75%
Rainfall 0.16 in
Snow Depth Not available.
6:31 AM 8:36 PM
Waning Crescent, 22% visible
METAR KPNC 291353Z AUTO 00000KT 7SM -RA SCT110 19/18 A3004 RMK AO2 SLP162 P0007 T01940178 TSNO $
Pressure 30.01 in
Visibility 7.0 miles
Clouds Scattered Clouds 11000 ft
Heat Index 73 °F
Dew Point 63 °F
Humidity 75%
Rainfall 0.16 in
Snow Depth Not available.
6:31 AM 8:36 PM
Waning Crescent, 22% visible
METAR KPNC 291353Z AUTO 00000KT 7SM -RA SCT110 19/18 A3004 RMK AO2 SLP162 P0007 T01940178 TSNO $

10-Day Weather Forecast

Almanac

Astronomy

Jul. 29, 2016 Rise Set
Actual Time
Civil Twilight
Nautical Twilight
Astronomical Twilight
Moon
Length of Visible Light
Length of Day
Tomorrow will be .
, % of the Moon is Illuminated

Today's Extremes

State Highs State Lows

Community

WunderPhotos

Upload Photos

1,928,341 photos uploaded!

WunderBlog® & News

Nearby

Air Quality

  Air Quality AQ Index Pollutant
Not available.

Snow Depth

Station Depth Elevation

Earthquake Activity

City Distance Mag. Time & Date
Minimum magnitude displayed is 2.5.

Coastal Water Temperatures

Place Temperature

Stations

Nearby Weather Stations

Station Location Temp. Windchill Dew Point Humidity Wind Precip. Elev Updated Type
                   

Watches & Warnings

There are currently no watches in effect.